Time;durP1;ratioP1;P1;durP2;ratioP2;P2;SDS_P1;SDS_P2;PMS_P1;PMS_P2;Temp;Humidity;BMP_temperature;BMP_pressure;BME280_temperature;BME280_humidity;BME280_pressure;Samples;Min_cycle;Max_cycle;Signal;HPM_P1;HPM_P2
2022/12/28 00:02:13;;;;;;;3.15;1.27;;;;;;;13.96;47.92;101559.13;5040009;28;20455;-63
2022/12/28 00:04:38;;;;;;;5.28;1.77;;;;;;;13.98;47.53;101557.19;5056529;28;20029;-63
2022/12/28 00:07:04;;;;;;;8.00;1.45;;;;;;;14.01;48.28;101547.97;5056055;28;20529;-63
2022/12/28 00:09:29;;;;;;;8.13;1.30;;;;;;;14.00;48.29;101546.25;5022770;28;20067;-63
2022/12/28 00:11:55;;;;;;;2.80;1.20;;;;;;;14.02;47.06;101545.13;5056447;28;20107;-63
2022/12/28 00:14:20;;;;;;;1.48;1.23;;;;;;;14.04;47.01;101545.00;5074984;28;20020;-63
2022/12/28 00:16:45;;;;;;;11.95;1.33;;;;;;;14.08;48.14;101530.28;5040238;28;20056;-63
2022/12/28 00:19:14;;;;;;;4.75;1.02;;;;;;;14.11;47.47;101530.00;5074322;28;20033;-63
2022/12/28 00:21:40;;;;;;;3.72;1.20;;;;;;;14.13;46.65;101533.41;5073673;28;20119;-62
2022/12/28 00:24:06;;;;;;;2.72;1.30;;;;;;;14.13;48.45;101530.72;5039167;28;20453;-62
2022/12/28 00:26:33;;;;;;;3.45;1.17;;;;;;;14.11;48.40;101516.53;5056151;28;20051;-63
2022/12/28 00:28:59;;;;;;;5.40;1.23;;;;;;;14.08;48.32;101514.09;5055698;28;20119;-63
2022/12/28 00:31:25;;;;;;;3.50;1.17;;;;;;;14.07;47.30;101517.78;5038982;28;20607;-64
2022/12/28 00:33:50;;;;;;;5.18;1.92;;;;;;;14.08;48.62;101506.03;5055804;28;20116;-63
2022/12/28 00:36:16;;;;;;;10.15;1.40;;;;;;;14.03;47.73;101505.59;5055702;28;20492;-63
2022/12/28 00:38:42;;;;;;;2.42;1.20;;;;;;;14.05;48.11;101498.22;5038678;28;20107;-63
2022/12/28 00:41:08;;;;;;;4.70;1.45;;;;;;;14.07;47.65;101495.41;5039269;28;20078;-63
2022/12/28 00:43:34;;;;;;;2.60;1.20;;;;;;;14.06;48.57;101483.75;5054437;28;20035;-63
2022/12/28 00:46:00;;;;;;;4.35;2.08;;;;;;;14.08;48.66;101473.69;5073200;28;20036;-63
2022/12/28 00:48:25;;;;;;;1.67;0.85;;;;;;;14.07;48.94;101474.66;5055275;28;20037;-63
2022/12/28 00:50:51;;;;;;;8.30;1.20;;;;;;;14.07;47.90;101458.50;5072947;28;20037;-63
2022/12/28 00:53:17;;;;;;;1.67;0.80;;;;;;;14.08;47.52;101449.44;5055744;28;20033;-69
2022/12/28 00:55:42;;;;;;;3.72;0.98;;;;;;;14.09;47.52;101435.00;5038513;28;20040;-63
2022/12/28 00:58:08;;;;;;;1.13;1.00;;;;;;;14.11;47.63;101426.75;5054811;28;20456;-63
2022/12/28 01:00:34;;;;;;;1.67;0.90;;;;;;;14.14;47.91;101432.75;5055234;28;20056;-63
2022/12/28 01:03:00;;;;;;;1.23;0.90;;;;;;;14.15;47.94;101434.47;5073138;28;20415;-63
2022/12/28 01:05:25;;;;;;;4.32;1.20;;;;;;;14.18;48.40;101431.47;5055476;28;20025;-63
2022/12/28 01:07:51;;;;;;;4.45;1.30;;;;;;;14.23;48.66;101426.53;5071903;28;20039;-63
2022/12/28 01:10:16;;;;;;;6.32;1.15;;;;;;;14.25;48.21;101440.72;5072063;28;20428;-63
2022/12/28 01:12:42;;;;;;;5.00;1.30;;;;;;;14.29;48.57;101425.13;5038282;28;20037;-63
2022/12/28 01:15:09;;;;;;;0.82;0.55;;;;;;;14.33;47.61;101431.97;5071834;28;20090;-63
2022/12/28 01:17:34;;;;;;;4.28;1.10;;;;;;;14.35;47.12;101425.44;5055520;28;20035;-63
2022/12/28 01:20:00;;;;;;;1.00;0.90;;;;;;;14.37;48.65;101431.56;5073074;28;20037;-63
2022/12/28 01:22:26;;;;;;;1.10;0.57;;;;;;;14.37;48.33;101418.09;5072043;28;20582;-63
2022/12/28 01:24:51;;;;;;;2.60;0.98;;;;;;;14.35;47.94;101420.06;5038202;28;20067;-66
2022/12/28 01:27:17;;;;;;;2.00;0.90;;;;;;;14.38;48.07;101425.16;5054984;28;20460;-63
2022/12/28 01:29:43;;;;;;;3.63;0.75;;;;;;;14.40;47.83;101417.81;5055285;28;20523;-67
2022/12/28 01:32:08;;;;;;;1.83;1.10;;;;;;;14.41;47.71;101415.94;5056027;28;20037;-63
2022/12/28 01:34:33;;;;;;;1.10;1.05;;;;;;;14.40;47.75;101398.94;5072319;28;20382;-63
2022/12/28 01:36:59;;;;;;;1.30;1.17;;;;;;;14.44;47.52;101397.66;5072065;28;20412;-63
2022/12/28 01:39:24;;;;;;;2.50;1.00;;;;;;;14.47;48.58;101401.91;5038536;28;20488;-63
2022/12/28 01:41:49;;;;;;;2.42;0.88;;;;;;;14.43;48.34;101382.47;5055452;28;20067;-63
2022/12/28 01:44:15;;;;;;;2.55;0.75;;;;;;;14.50;47.43;101391.72;5073332;28;20020;-62
2022/12/28 01:46:48;;;;;;;1.83;1.30;;;;;;;14.49;48.00;101372.97;5054787;28;20060;-63
2022/12/28 01:49:17;;;;;;;4.38;1.73;;;;;;;14.45;47.56;101372.41;5055334;28;20116;-63
2022/12/28 01:52:12;;;;;;;2.45;1.10;;;;;;;14.44;48.15;101370.69;5072637;28;20497;-63
2022/12/28 01:54:55;;;;;;;2.08;0.77;;;;;;;14.43;49.06;101366.28;5072633;28;20087;-63
2022/12/28 01:57:25;;;;;;;3.38;0.90;;;;;;;14.43;48.79;101368.16;5041279;28;20059;-63
2022/12/28 01:59:54;;;;;;;1.90;0.95;;;;;;;14.46;48.84;101371.41;5058768;28;20037;-63
2022/12/28 02:02:20;;;;;;;4.00;1.13;;;;;;;14.50;47.61;101380.94;5058846;28;20028;-63
2022/12/28 02:04:46;;;;;;;1.23;0.70;;;;;;;14.55;48.17;101384.03;5058610;28;20054;-63
2022/12/28 02:07:15;;;;;;;1.45;0.93;;;;;;;14.56;48.07;101380.38;5075936;28;20504;-63
2022/12/28 02:09:42;;;;;;;1.90;1.00;;;;;;;14.58;47.81;101372.13;5058431;28;20447;-63
2022/12/28 02:12:10;;;;;;;1.40;1.20;;;;;;;14.56;48.10;101361.50;5058713;28;20028;-63
2022/12/28 02:14:38;;;;;;;5.07;0.88;;;;;;;14.58;48.36;101354.09;5058941;28;20496;-62
2022/12/28 02:17:03;;;;;;;1.70;0.70;;;;;;;14.57;48.63;101352.41;5041926;28;20119;-63
2022/12/28 02:19:55;;;;;;;1.70;1.17;;;;;;;14.62;48.71;101351.13;5058367;28;20125;-63
2022/12/28 02:22:26;;;;;;;3.80;1.10;;;;;;;14.60;48.68;101350.44;5037502;28;20032;-63
2022/12/28 02:25:06;;;;;;;2.70;1.02;;;;;;;14.60;48.60;101337.78;5075891;28;20037;-63
2022/12/28 02:27:43;;;;;;;4.28;1.20;;;;;;;14.59;48.01;101325.31;5075891;28;20040;-62
2022/12/28 02:30:09;;;;;;;5.18;1.27;;;;;;;14.61;48.39;101319.75;5075730;28;20029;-62
2022/12/28 02:32:55;;;;;;;1.73;0.88;;;;;;;14.63;48.11;101320.50;5058733;28;20397;-62
2022/12/28 02:35:29;;;;;;;0.95;0.80;;;;;;;14.63;48.37;101317.78;5076013;28;20048;-62
2022/12/28 02:38:00;;;;;;;1.27;0.95;;;;;;;14.63;47.85;101321.31;5057876;28;20032;-62
2022/12/28 02:40:30;;;;;;;1.08;0.70;;;;;;;14.60;47.88;101312.69;5075901;28;20503;-62
2022/12/28 02:42:56;;;;;;;2.17;1.08;;;;;;;14.61;47.86;101306.28;5042297;28;20112;-62
2022/12/28 02:51:53;;;;;;;2.33;1.02;;;;;;;14.63;47.98;101277.34;5075604;28;20087;-63
2022/12/28 02:57:40;;;;;;;1.95;0.88;;;;;;;14.60;47.95;101274.94;5074584;28;20095;-63
2022/12/28 03:00:11;;;;;;;2.38;1.05;;;;;;;14.59;48.48;101271.38;5057495;28;20416;-62
2022/12/28 03:03:00;;;;;;;0.70;0.68;;;;;;;14.60;47.72;101262.28;5041489;28;20028;-63
2022/12/28 03:08:45;;;;;;;1.98;1.02;;;;;;;14.58;48.28;101259.75;5075102;28;20067;-63
2022/12/28 03:11:14;;;;;;;2.05;0.82;;;;;;;14.62;49.01;101254.94;5073327;28;20036;-63
2022/12/28 03:13:55;;;;;;;1.05;0.77;;;;;;;14.63;48.93;101253.09;5057242;28;20056;-63
2022/12/28 03:16:28;;;;;;;2.47;1.10;;;;;;;14.65;48.44;101246.56;5057520;28;20116;-63
2022/12/28 03:33:02;;;;;;;1.33;1.00;;;;;;;14.73;49.09;101229.63;5059904;28;20035;-62
2022/12/28 03:35:47;;;;;;;7.00;1.42;;;;;;;14.74;48.85;101234.03;5040716;28;20021;-62
2022/12/28 03:38:26;;;;;;;3.10;0.90;;;;;;;14.75;49.36;101216.84;5074708;28;20044;-62
2022/12/28 03:40:55;;;;;;;1.13;0.88;;;;;;;14.78;48.11;101211.16;5056730;28;20037;-62
2022/12/28 03:43:41;;;;;;;3.30;1.58;;;;;;;14.81;48.60;101205.47;5075144;28;20033;-62
2022/12/28 03:46:13;;;;;;;5.05;1.05;;;;;;;14.83;49.31;101198.94;5042295;28;20036;-62
2022/12/28 03:48:38;;;;;;;4.20;1.42;;;;;;;14.87;48.48;101204.88;5040108;28;20071;-62
2022/12/28 03:51:04;;;;;;;1.02;0.95;;;;;;;14.90;49.11;101199.19;5039843;28;20044;-63
2022/12/28 03:53:37;;;;;;;1.95;0.85;;;;;;;14.93;48.68;101193.50;5074993;28;20024;-63
2022/12/28 03:56:22;;;;;;;1.42;1.33;;;;;;;14.95;48.63;101183.41;5074477;28;20066;-62
2022/12/28 03:58:48;;;;;;;0.77;0.77;;;;;;;14.97;47.86;101184.97;5039839;28;20036;-62
2022/12/28 04:01:13;;;;;;;0.77;0.77;;;;;;;14.99;49.41;101182.97;5056423;28;20033;-62
2022/12/28 04:03:39;;;;;;;4.43;0.95;;;;;;;15.04;48.56;101180.69;5056579;28;20612;-62
2022/12/28 04:06:05;;;;;;;5.43;1.00;;;;;;;15.05;48.96;101182.38;5056629;28;20036;-62
2022/12/28 04:08:31;;;;;;;2.08;0.77;;;;;;;15.07;48.51;101174.16;5056787;28;20396;-62
2022/12/28 04:10:58;;;;;;;2.38;1.00;;;;;;;15.10;48.72;101179.25;5074444;28;20037;-62
2022/12/28 04:13:24;;;;;;;2.40;0.95;;;;;;;15.12;49.24;101171.84;5073836;28;20080;-63
2022/12/28 04:16:00;;;;;;;6.13;1.25;;;;;;;15.15;48.98;101171.53;5055942;28;20028;-62
2022/12/28 04:18:26;;;;;;;1.45;0.90;;;;;;;15.19;48.75;101172.09;5073070;28;20508;-62
2022/12/28 04:20:52;;;;;;;6.28;1.08;;;;;;;15.20;49.01;101157.59;5055964;28;20025;-62
2022/12/28 04:23:17;;;;;;;2.40;1.20;;;;;;;15.23;48.18;101141.09;5056030;28;20542;-62
2022/12/28 04:25:42;;;;;;;3.42;1.00;;;;;;;15.25;48.86;101172.31;5055792;28;20527;-62
2022/12/28 04:28:08;;;;;;;3.72;0.90;;;;;;;15.26;49.31;101159.69;5055618;28;20040;-62
2022/12/28 04:30:33;;;;;;;3.17;1.10;;;;;;;15.31;49.69;101160.06;5073715;28;20039;-63
2022/12/28 04:32:59;;;;;;;3.00;0.70;;;;;;;15.31;48.39;101155.53;5073470;28;20406;-62
2022/12/28 04:35:24;;;;;;;2.30;0.70;;;;;;;15.31;49.45;101157.38;5056106;28;20059;-62
2022/12/28 04:37:49;;;;;;;3.40;1.20;;;;;;;15.30;48.57;101158.41;5073599;28;20504;-63
2022/12/28 04:40:15;;;;;;;2.40;0.88;;;;;;;15.32;48.42;101153.69;5055519;28;20091;-62
2022/12/28 04:42:40;;;;;;;4.05;0.75;;;;;;;15.34;48.41;101160.63;5073376;28;20114;-63
2022/12/28 04:45:07;;;;;;;3.97;1.08;;;;;;;15.36;48.53;101158.63;5055454;28;20033;-62
2022/12/28 04:47:33;;;;;;;0.95;0.80;;;;;;;15.37;49.44;101160.31;5055872;28;20059;-63
2022/12/28 04:49:58;;;;;;;1.48;0.63;;;;;;;15.41;49.97;101155.47;5055217;28;20036;-62
2022/12/28 04:52:23;;;;;;;1.45;0.63;;;;;;;15.43;49.07;101159.72;5055421;28;20079;-63
2022/12/28 04:54:49;;;;;;;4.63;1.60;;;;;;;15.44;49.48;101156.00;5055508;28;20032;-62
2022/12/28 04:57:14;;;;;;;1.00;0.70;;;;;;;15.46;49.78;101164.84;5038667;28;20052;-62
2022/12/28 04:59:40;;;;;;;2.30;0.70;;;;;;;15.47;49.09;101154.88;5054425;28;20045;-63
2022/12/28 05:02:06;;;;;;;8.15;1.23;;;;;;;15.47;48.95;101160.28;5073467;28;20114;-63
2022/12/28 05:04:31;;;;;;;2.28;0.77;;;;;;;15.49;49.21;101152.91;5038502;28;20032;-62
2022/12/28 05:06:57;;;;;;;1.67;0.95;;;;;;;15.49;49.10;101142.97;5038847;28;20558;-62
2022/12/28 05:09:22;;;;;;;3.53;0.90;;;;;;;15.52;49.08;101139.09;5074317;28;20070;-62
2022/12/28 05:11:48;;;;;;;2.33;0.73;;;;;;;15.52;48.17;101145.31;5072526;28;20063;-62
2022/12/28 05:14:13;;;;;;;5.20;0.80;;;;;;;15.54;49.55;101147.88;5055840;28;20040;-62
2022/12/28 05:16:39;;;;;;;1.92;0.68;;;;;;;15.52;49.17;101148.03;5055364;28;20082;-64
2022/12/28 05:19:04;;;;;;;4.10;0.90;;;;;;;15.54;49.18;101151.44;5038507;28;20040;-63
2022/12/28 05:21:29;;;;;;;0.70;0.68;;;;;;;15.53;49.06;101144.31;5038287;28;20036;-62
2022/12/28 05:23:56;;;;;;;3.30;1.08;;;;;;;15.53;49.06;101149.72;5072767;28;20028;-63
2022/12/28 05:26:24;;;;;;;2.40;0.82;;;;;;;15.55;49.45;101142.31;5055475;28;20107;-62
2022/12/28 05:28:49;;;;;;;3.53;1.15;;;;;;;15.59;49.69;101143.72;5054877;28;20516;-62
2022/12/28 05:31:17;;;;;;;5.05;0.65;;;;;;;15.57;48.89;101145.72;5038155;28;20063;-62
2022/12/28 05:33:43;;;;;;;2.25;0.63;;;;;;;15.59;49.97;101149.13;5072727;28;20070;-62
2022/12/28 05:36:20;;;;;;;0.93;0.52;;;;;;;15.58;48.92;101147.41;5054733;28;20037;-62
2022/12/28 05:38:45;;;;;;;2.75;0.85;;;;;;;15.59;48.82;101142.88;5038226;28;20017;-62
2022/12/28 05:41:14;;;;;;;1.85;0.93;;;;;;;15.59;48.30;101132.91;5038745;28;20039;-63
2022/12/28 05:43:40;;;;;;;2.05;0.70;;;;;;;15.59;48.99;101137.47;5038035;28;20056;-62
2022/12/28 05:46:11;;;;;;;1.05;0.60;;;;;;;15.60;49.96;101128.38;5038112;28;20025;-62
2022/12/28 05:48:39;;;;;;;0.68;0.68;;;;;;;15.61;48.51;101130.91;5037073;28;20044;-63
2022/12/28 05:51:07;;;;;;;4.10;0.93;;;;;;;15.60;49.31;101128.38;5054760;28;20040;-62
2022/12/28 05:53:33;;;;;;;1.33;0.80;;;;;;;15.61;49.40;101135.44;5055405;28;20101;-63
2022/12/28 05:56:19;;;;;;;4.35;0.73;;;;;;;15.58;50.26;101127.66;5054683;28;20029;-64
2022/12/28 05:58:51;;;;;;;5.70;0.70;;;;;;;15.60;50.00;101128.38;5071508;28;20040;-62
2022/12/28 06:01:19;;;;;;;3.15;0.60;;;;;;;15.63;49.92;101130.75;5054574;28;20408;-63
2022/12/28 06:03:46;;;;;;;2.38;0.55;;;;;;;15.63;48.87;101120.78;5038147;28;20039;-62
2022/12/28 06:06:15;;;;;;;3.78;0.50;;;;;;;15.63;49.02;101111.88;5054499;28;20033;-62
2022/12/28 06:08:42;;;;;;;2.15;0.77;;;;;;;15.64;49.79;101125.19;5053478;28;20032;-63
2022/12/28 06:11:10;;;;;;;1.35;0.47;;;;;;;15.63;48.61;101109.16;5055088;28;20055;-62
2022/12/28 06:13:36;;;;;;;3.22;0.73;;;;;;;15.61;50.21;101103.91;5054459;28;20112;-62
2022/12/28 06:16:31;;;;;;;1.02;0.75;;;;;;;15.62;48.75;101111.00;5054794;28;20184;-63
2022/12/28 06:18:58;;;;;;;4.95;0.55;;;;;;;15.65;50.03;101105.31;5049551;28;20051;-62
2022/12/28 06:21:26;;;;;;;5.88;0.60;;;;;;;15.65;49.81;101105.31;5053581;28;20033;-62
2022/12/28 06:23:53;;;;;;;2.03;0.63;;;;;;;15.67;48.85;101116.78;5054388;28;20020;-62
2022/12/28 06:26:20;;;;;;;1.33;0.73;;;;;;;15.68;49.02;101105.00;5055162;28;20458;-63
2022/12/28 06:28:46;;;;;;;2.55;0.57;;;;;;;15.69;49.88;101108.50;5054698;28;20060;-62
2022/12/28 06:31:14;;;;;;;3.28;1.00;;;;;;;15.70;49.39;101111.06;5072367;28;20032;-63
2022/12/28 06:33:39;;;;;;;3.05;0.60;;;;;;;15.70;48.92;101105.69;5054564;28;20041;-63
2022/12/28 06:36:11;;;;;;;1.40;0.70;;;;;;;15.72;50.32;101090.16;5072405;28;20094;-63
2022/12/28 06:38:36;;;;;;;1.20;0.73;;;;;;;15.76;48.76;101100.66;5054864;28;20190;-64
2022/12/28 06:41:03;;;;;;;3.70;0.45;;;;;;;15.77;48.71;101102.34;5037376;28;20508;-62
2022/12/28 06:43:33;;;;;;;0.52;0.52;;;;;;;15.76;49.44;101116.84;5040994;28;20535;-63
2022/12/28 06:45:58;;;;;;;3.72;0.45;;;;;;;15.78;49.29;101104.03;5057836;28;20500;-64
2022/12/28 06:48:24;;;;;;;1.42;0.60;;;;;;;15.76;49.49;101106.91;5057697;28;20039;-62
2022/12/28 06:50:59;;;;;;;0.82;0.40;;;;;;;15.74;49.18;101101.66;5057850;28;20096;-62
2022/12/28 06:53:27;;;;;;;0.75;0.50;;;;;;;15.77;48.87;101107.75;5041407;28;20020;-62
2022/12/28 06:55:57;;;;;;;0.50;0.28;;;;;;;15.77;49.17;101099.66;5057564;28;20051;-62
2022/12/28 06:58:24;;;;;;;0.30;0.30;;;;;;;15.74;50.02;101098.13;5075439;28;20032;-62
2022/12/28 07:00:50;;;;;;;3.53;0.15;;;;;;;15.77;49.18;101103.22;5057433;28;20043;-62
2022/12/28 07:03:15;;;;;;;0.45;0.30;;;;;;;15.72;50.20;101090.16;5057546;28;20400;-62
2022/12/28 07:05:41;;;;;;;1.75;0.30;;;;;;;15.72;48.99;101089.31;5057463;28;20093;-63
2022/12/28 07:08:07;;;;;;;1.95;0.38;;;;;;;15.74;50.52;101088.13;5075627;28;20032;-62
2022/12/28 07:10:33;;;;;;;0.40;0.40;;;;;;;15.72;49.97;101082.06;5057618;28;20447;-62
2022/12/28 07:12:59;;;;;;;0.65;0.20;;;;;;;15.73;50.00;101089.16;5057196;28;20119;-62
2022/12/28 07:15:24;;;;;;;2.78;0.45;;;;;;;15.73;50.73;101102.66;5075835;28;20112;-63
2022/12/28 07:17:50;;;;;;;1.85;0.68;;;;;;;15.73;48.99;101091.88;5057268;28;20040;-63
2022/12/28 07:20:15;;;;;;;1.35;0.52;;;;;;;15.71;50.68;101080.38;5075444;28;20040;-63
2022/12/28 07:22:40;;;;;;;0.70;0.40;;;;;;;15.67;49.90;101087.06;5040261;28;20450;-62
2022/12/28 07:25:06;;;;;;;2.35;0.60;;;;;;;15.68;50.89;101083.38;5040403;28;20051;-63
2022/12/28 07:27:34;;;;;;;0.70;0.50;;;;;;;15.67;50.34;101081.69;5074894;28;20064;-62
2022/12/28 07:29:59;;;;;;;0.43;0.40;;;;;;;15.67;50.25;101072.72;5040594;28;20388;-64
2022/12/28 07:32:25;;;;;;;0.68;0.43;;;;;;;15.68;50.63;101069.88;5040812;28;20036;-63
2022/12/28 07:34:51;;;;;;;1.27;0.45;;;;;;;15.65;50.81;101062.09;5057333;28;20181;-62
2022/12/28 07:37:16;;;;;;;0.38;0.30;;;;;;;15.66;50.26;101079.16;5056701;28;20564;-62
2022/12/28 07:39:41;;;;;;;2.63;0.30;;;;;;;15.67;49.71;101065.47;5075076;28;20029;-63
2022/12/28 07:42:09;;;;;;;3.00;0.80;;;;;;;15.67;50.41;101070.88;5057586;28;20055;-62
2022/12/28 07:44:35;;;;;;;3.13;0.40;;;;;;;15.69;50.57;101074.25;5075166;28;20021;-63
2022/12/28 07:47:00;;;;;;;3.08;0.57;;;;;;;15.67;51.05;101081.69;5074580;28;20059;-63
2022/12/28 07:49:26;;;;;;;0.75;0.40;;;;;;;15.68;49.91;101072.59;5074501;28;20554;-62
2022/12/28 07:51:51;;;;;;;0.60;0.38;;;;;;;15.68;50.27;101075.28;5073273;28;20504;-63
2022/12/28 07:54:17;;;;;;;0.30;0.30;;;;;;;15.70;49.75;101065.16;5038823;28;20484;-62
2022/12/28 07:56:42;;;;;;;0.50;0.43;;;;;;;15.72;49.81;101073.09;5074208;28;20386;-63
2022/12/28 07:59:08;;;;;;;2.83;1.00;;;;;;;15.73;49.56;101067.56;5057079;28;20029;-63
2022/12/28 08:01:35;;;;;;;0.50;0.40;;;;;;;15.72;50.65;101068.56;5056384;28;20043;-62
2022/12/28 08:04:03;;;;;;;2.65;0.25;;;;;;;15.78;51.10;101055.41;5074010;28;20056;-63
2022/12/28 08:06:29;;;;;;;0.95;0.68;;;;;;;15.83;51.14;101075.53;5039599;28;20094;-62
2022/12/28 08:08:58;;;;;;;1.10;0.77;;;;;;;15.85;50.51;101062.75;5056275;28;20028;-62
2022/12/28 08:11:26;;;;;;;0.17;0.17;;;;;;;15.86;49.87;101058.16;5056678;28;20025;-62
2022/12/28 08:13:53;;;;;;;0.85;0.30;;;;;;;15.91;50.60;101061.28;5056170;28;20111;-63
2022/12/28 08:16:20;;;;;;;1.77;0.35;;;;;;;15.92;50.47;101063.81;5056274;28;20033;-63
2022/12/28 08:18:46;;;;;;;0.40;0.30;;;;;;;15.94;49.78;101060.97;5056202;28;20123;-62
2022/12/28 08:21:33;;;;;;;1.95;0.55;;;;;;;15.95;49.50;101079.72;5073765;28;20028;-63
2022/12/28 08:23:59;;;;;;;0.35;0.30;;;;;;;15.94;49.52;101075.28;5038928;28;20226;-62
2022/12/28 08:26:36;;;;;;;0.82;0.45;;;;;;;15.95;50.93;101079.72;5056469;28;20029;-63
2022/12/28 08:29:04;;;;;;;0.80;0.43;;;;;;;15.97;49.91;101076.88;5055347;28;20049;-63
2022/12/28 08:31:38;;;;;;;2.47;0.43;;;;;;;16.00;49.40;101076.50;5056033;28;20072;-63
2022/12/28 08:34:05;;;;;;;0.52;0.40;;;;;;;16.01;50.52;101078.22;5056060;28;20032;-62
2022/12/28 08:36:31;;;;;;;1.48;0.50;;;;;;;16.03;50.97;101084.31;5055834;28;20041;-64
2022/12/28 08:38:57;;;;;;;3.67;0.65;;;;;;;16.05;51.03;101079.63;5072387;28;20183;-62
2022/12/28 08:41:24;;;;;;;3.70;0.30;;;;;;;16.05;49.47;101085.84;5038193;28;20424;-63
2022/12/28 08:43:51;;;;;;;2.25;0.43;;;;;;;16.06;49.86;101075.88;5037457;28;20040;-63
2022/12/28 08:46:28;;;;;;;0.47;0.47;;;;;;;16.06;49.99;101075.88;5037401;28;20025;-63
2022/12/28 08:48:55;;;;;;;1.98;0.85;;;;;;;16.07;50.79;101083.84;5067592;28;20048;-62
2022/12/28 08:51:24;;;;;;;5.20;0.40;;;;;;;16.11;50.00;101084.38;5037378;28;20032;-62
2022/12/28 08:53:50;;;;;;;0.93;0.40;;;;;;;16.16;49.67;101082.06;5054066;28;20533;-63
2022/12/28 08:56:24;;;;;;;0.50;0.40;;;;;;;16.19;50.89;101073.63;5054769;28;20013;-63
2022/12/28 08:58:49;;;;;;;0.30;0.30;;;;;;;16.21;49.97;101079.72;5051750;28;20497;-63
2022/12/28 09:01:17;;;;;;;1.88;0.30;;;;;;;16.22;49.48;101076.00;5038937;28;20033;-62
2022/12/28 09:03:45;;;;;;;1.15;0.40;;;;;;;16.24;50.72;101074.00;5055205;28;20035;-63
2022/12/28 09:06:13;;;;;;;0.30;0.30;;;;;;;16.27;49.47;101073.69;5055105;28;20512;-63
2022/12/28 09:08:39;;;;;;;1.17;0.30;;;;;;;16.28;50.29;101064.53;5055576;28;20035;-63
2022/12/28 09:11:10;;;;;;;1.40;0.22;;;;;;;16.28;50.28;101070.81;5055540;28;20044;-63
2022/12/28 09:13:35;;;;;;;1.30;0.47;;;;;;;16.29;49.84;101067.09;5038519;28;20624;-62
2022/12/28 09:16:09;;;;;;;1.95;0.50;;;;;;;16.30;49.95;101067.97;5022029;28;20032;-63
2022/12/28 09:18:36;;;;;;;2.28;0.70;;;;;;;16.32;50.01;101055.13;5055899;28;20033;-63
2022/12/28 09:21:07;;;;;;;1.27;0.45;;;;;;;16.33;50.24;101062.22;5055500;28;20074;-63
2022/12/28 09:23:32;;;;;;;1.75;0.40;;;;;;;16.29;50.01;101061.69;5055676;28;20058;-63
2022/12/28 09:26:15;;;;;;;2.75;0.30;;;;;;;16.31;49.86;101058.81;5073317;28;20032;-62
2022/12/28 09:28:48;;;;;;;3.10;0.85;;;;;;;16.32;50.38;101055.13;5055228;28;20040;-62
2022/12/28 09:31:14;;;;;;;1.85;0.50;;;;;;;16.33;49.91;101055.97;5055535;28;20039;-62
2022/12/28 09:33:57;;;;;;;0.35;0.32;;;;;;;16.33;50.29;101056.81;5055395;28;20033;-63
2022/12/28 09:36:23;;;;;;;0.35;0.35;;;;;;;16.34;50.58;101058.50;5073217;28;20107;-62
2022/12/28 09:38:49;;;;;;;0.95;0.75;;;;;;;16.32;50.80;101055.13;5054940;28;20036;-63
2022/12/28 09:41:20;;;;;;;0.43;0.40;;;;;;;16.39;49.38;101063.44;5022421;28;20419;-66
2022/12/28 09:43:47;;;;;;;0.65;0.47;;;;;;;16.39;49.85;101056.16;5055369;28;20040;-63
2022/12/28 09:46:16;;;;;;;0.98;0.60;;;;;;;16.42;49.41;101055.84;5054515;28;20032;-64
2022/12/28 09:48:53;;;;;;;0.30;0.30;;;;;;;16.48;50.45;101043.53;5055071;28;20068;-62
2022/12/28 09:51:20;;;;;;;0.88;0.30;;;;;;;16.50;50.02;101055.06;5038675;28;20039;-67
2022/12/28 09:53:46;;;;;;;1.27;0.40;;;;;;;16.52;49.82;101058.44;5038250;28;20469;-63
2022/12/28 09:56:25;;;;;;;1.30;0.50;;;;;;;16.53;49.96;101058.28;5055703;28;20039;-62
2022/12/28 09:58:51;;;;;;;0.60;0.30;;;;;;;16.57;49.83;101054.25;5038363;28;20447;-63
2022/12/28 10:01:17;;;;;;;1.42;0.40;;;;;;;16.58;49.65;101053.22;5055067;28;20028;-66
2022/12/28 10:03:44;;;;;;;2.83;0.45;;;;;;;16.63;50.12;101053.63;5055581;28;20033;-62
2022/12/28 10:06:15;;;;;;;0.65;0.43;;;;;;;16.69;49.88;101047.56;5073544;28;20120;-63
2022/12/28 10:08:48;;;;;;;0.47;0.22;;;;;;;16.74;50.34;101042.50;5034805;28;20039;-64
2022/12/28 10:11:17;;;;;;;2.50;0.50;;;;;;;16.78;49.99;101046.56;5055239;28;20036;-65
2022/12/28 10:13:43;;;;;;;1.38;0.40;;;;;;;16.85;49.73;101039.50;5055131;28;20037;-62
2022/12/28 10:16:17;;;;;;;0.40;0.40;;;;;;;16.88;49.13;101036.47;5072632;28;20136;-63
2022/12/28 10:18:43;;;;;;;1.48;0.35;;;;;;;16.92;49.29;101038.84;5042237;28;20055;-62
2022/12/28 10:21:09;;;;;;;1.20;0.55;;;;;;;16.96;49.07;101032.06;5058542;28;20449;-65
2022/12/28 10:23:35;;;;;;;1.35;0.68;;;;;;;17.00;49.56;101028.03;5058196;28;20033;-65
2022/12/28 10:26:03;;;;;;;0.73;0.60;;;;;;;17.05;50.17;101026.53;5042174;28;20046;-63
2022/12/28 10:28:41;;;;;;;0.60;0.30;;;;;;;17.09;49.64;101027.00;5042126;28;20033;-63
2022/12/28 10:31:09;;;;;;;1.98;0.70;;;;;;;17.11;49.09;101025.00;5058852;28;20036;-63
2022/12/28 10:33:40;;;;;;;0.75;0.35;;;;;;;17.12;49.19;101016.72;5041872;28;20033;-63
2022/12/28 10:36:10;;;;;;;2.17;0.50;;;;;;;17.19;49.16;101023.16;5041799;28;20120;-64
2022/12/28 10:38:35;;;;;;;1.75;0.88;;;;;;;17.21;49.02;101013.00;5042379;28;20032;-63
2022/12/28 10:41:06;;;;;;;1.08;0.50;;;;;;;17.26;48.17;101023.31;5058217;28;20405;-62
2022/12/28 10:43:34;;;;;;;1.85;0.40;;;;;;;17.28;49.60;101016.72;5058508;28;20029;-64
2022/12/28 10:46:01;;;;;;;2.03;1.65;;;;;;;17.31;49.39;101012.84;5041346;28;20043;-63
2022/12/28 10:48:33;;;;;;;1.75;0.57;;;;;;;17.31;48.59;101026.38;5040801;28;20040;-62
2022/12/28 10:51:07;;;;;;;0.57;0.40;;;;;;;17.32;49.41;101022.66;5057723;28;20103;-63
2022/12/28 10:53:40;;;;;;;2.22;0.43;;;;;;;17.32;49.26;101014.53;5076366;28;20079;-62
2022/12/28 10:56:11;;;;;;;1.17;0.30;;;;;;;17.34;48.50;100988.13;5075699;28;20044;-63
2022/12/28 10:58:38;;;;;;;0.88;0.28;;;;;;;17.34;49.18;101010.63;5075622;28;20043;-63
2022/12/28 11:01:12;;;;;;;2.45;0.40;;;;;;;17.36;49.16;101013.19;5040874;28;20116;-64
2022/12/28 11:04:02;;;;;;;0.30;0.20;;;;;;;17.35;49.29;101011.50;5075834;28;20382;-64
2022/12/28 11:06:31;;;;;;;0.70;0.50;;;;;;;17.36;49.34;100996.94;5045835;28;20111;-65
2022/12/28 11:09:01;;;;;;;1.52;0.50;;;;;;;17.41;48.51;101000.00;5057953;28;20032;-62
2022/12/28 11:11:26;;;;;;;0.50;0.30;;;;;;;17.45;49.73;100996.75;5041551;28;20393;-62
2022/12/28 11:13:56;;;;;;;0.25;0.25;;;;;;;17.46;48.92;100992.19;5075960;28;20043;-62
2022/12/28 11:16:21;;;;;;;0.73;0.60;;;;;;;17.47;49.18;100977.66;5057553;28;20033;-62
2022/12/28 11:18:47;;;;;;;0.82;0.30;;;;;;;17.48;48.75;100990.16;5075131;28;20035;-62
2022/12/28 11:21:17;;;;;;;0.70;0.40;;;;;;;17.49;49.53;100986.44;5056997;28;20032;-62
2022/12/28 11:23:43;;;;;;;0.38;0.30;;;;;;;17.55;48.47;100969.56;5040523;28;20028;-61
2022/12/28 11:26:12;;;;;;;1.13;0.47;;;;;;;17.54;48.63;100988.66;5040913;28;20570;-62
2022/12/28 11:28:39;;;;;;;5.15;0.35;;;;;;;17.51;49.41;100973.56;5057113;28;20052;-63
2022/12/28 11:31:06;;;;;;;2.30;0.60;;;;;;;17.53;49.10;100978.84;5075039;28;20046;-63
2022/12/28 11:33:43;;;;;;;1.75;0.40;;;;;;;17.52;48.42;100964.44;5040107;28;20036;-64
2022/12/28 11:36:17;;;;;;;0.30;0.30;;;;;;;17.49;48.63;100962.06;5056877;28;20496;-64
2022/12/28 11:38:45;;;;;;;3.25;0.57;;;;;;;17.47;48.74;100966.81;5039985;28;20024;-64
2022/12/28 11:41:12;;;;;;;1.40;0.57;;;;;;;17.47;48.37;100964.09;5057128;28;20024;-63
2022/12/28 11:43:41;;;;;;;0.88;0.38;;;;;;;17.48;48.85;100963.06;5056941;28;20028;-64
2022/12/28 11:46:26;;;;;;;0.32;0.30;;;;;;;17.48;48.35;100957.66;5056565;28;20109;-64
2022/12/28 11:49:02;;;;;;;0.80;0.80;;;;;;;17.48;48.56;100930.56;5074423;28;20508;-65
2022/12/28 11:51:33;;;;;;;1.25;0.50;;;;;;;17.45;49.13;100936.31;5056772;28;20037;-64
2022/12/28 11:54:04;;;;;;;1.55;0.40;;;;;;;17.42;48.23;100920.41;5039647;28;20036;-63
2022/12/28 11:56:42;;;;;;;1.17;0.38;;;;;;;17.40;48.04;100938.72;5057039;28;20024;-66
2022/12/28 11:59:26;;;;;;;2.85;0.90;;;;;;;17.37;49.55;100928.22;5074979;28;20110;-68